Shamrock, Oklahoma
Current Conditions -  °F | °C
As of 6:35 PM on Sunday 21 Dec 2014 (Local Time) from KCUH Reporting Station
Drizzle Drizzle  
Wind Chill: 39°   Ceiling: 800
Heat Index: 43°   Visibility: 4mi
Dew Point: 43°   Wind: 6mph
Humidity: 100%   Direction: 140°SE
Pressure: 29.78"   Gusts: NA
Location:  35.91°N, 96.58°W
Report Text: KCUH 220035Z AUTO 14005KT 4SM -DZ OVC008 06/06 A2978 RMK AO2
Loading
Personal Weather Stations






























Interactive Weather Map New forecast layout! Learn more

10-Day Weather Forecast

Advertisements
Track Severe Weather on mobile